Time;durP1;ratioP1;P1;durP2;ratioP2;P2;SDS_P1;SDS_P2;PMS_P1;PMS_P2;Temp;Humidity;BMP_temperature;BMP_pressure;BME280_temperature;BME280_humidity;BME280_pressure;Samples;Min_cycle;Max_cycle;Signal;HPM_P1;HPM_P2
2022/06/27 00:01:27;;;;;;;8.53;7.73;;;;;;;;;;5135499;27;20524;-70
2022/06/27 00:03:54;;;;;;;8.97;8.07;;;;;;;;;;5135610;27;20443;-70
2022/06/27 00:06:21;;;;;;;9.73;8.17;;;;;;;;;;5134950;27;20566;-70
2022/06/27 00:08:49;;;;;;;10.83;8.10;;;;;;;;;;5135414;27;20439;-71
2022/06/27 00:11:17;;;;;;;7.80;7.00;;;;;;;;;;5135235;27;20529;-70
2022/06/27 00:13:45;;;;;;;12.63;8.17;;;;;;;;;;5135300;27;20464;-70
2022/06/27 00:16:12;;;;;;;8.30;7.60;;;;;;;;;;5133936;27;20453;-70
2022/06/27 00:18:40;;;;;;;9.17;8.37;;;;;;;;;;5134961;27;20531;-70
2022/06/27 00:21:07;;;;;;;8.70;7.27;;;;;;;;;;5135056;27;20519;-70
2022/06/27 00:23:35;;;;;;;8.83;8.03;;;;;;;;;;5135291;27;21029;-70
2022/06/27 00:26:02;;;;;;;8.37;7.50;;;;;;;;;;5134577;27;20989;-69
2022/06/27 00:28:31;;;;;;;10.03;7.80;;;;;;;;;;5135124;27;20530;-70
2022/06/27 00:30:58;;;;;;;8.20;7.50;;;;;;;;;;5135025;27;20873;-69
2022/06/27 00:33:25;;;;;;;8.53;7.47;;;;;;;;;;5134670;27;20620;-69
2022/06/27 00:35:53;;;;;;;9.10;8.30;;;;;;;;;;5134938;27;20480;-70
2022/06/27 00:38:20;;;;;;;8.37;7.50;;;;;;;;;;5134934;27;20450;-70
2022/06/27 00:40:47;;;;;;;8.90;8.00;;;;;;;;;;5134834;27;20545;-70
2022/06/27 00:43:14;;;;;;;9.87;8.90;;;;;;;;;;5134498;27;20966;-71
2022/06/27 00:45:43;;;;;;;7.97;7.30;;;;;;;;;;5135011;27;20800;-69
2022/06/27 00:48:10;;;;;;;9.93;7.80;;;;;;;;;;5134946;27;20474;-70
2022/06/27 00:50:38;;;;;;;9.10;8.20;;;;;;;;;;5134595;27;20472;-70
2022/06/27 00:53:05;;;;;;;10.03;8.20;;;;;;;;;;5134728;27;20489;-70
2022/06/27 00:55:32;;;;;;;8.77;8.07;;;;;;;;;;5134243;27;20440;-70
2022/06/27 00:58:01;;;;;;;8.77;7.90;;;;;;;;;;5134623;27;20444;-70
2022/06/27 01:00:29;;;;;;;9.80;8.90;;;;;;;;;;5134202;27;20533;-70
2022/06/27 01:02:57;;;;;;;9.80;8.90;;;;;;;;;;5134526;27;20446;-71
2022/06/27 01:05:25;;;;;;;10.47;8.60;;;;;;;;;;5134682;28;20796;-71
2022/06/27 01:07:52;;;;;;;9.33;8.43;;;;;;;;;;5134384;28;20548;-71
2022/06/27 01:10:19;;;;;;;9.77;8.77;;;;;;;;;;5134180;28;20488;-70
2022/06/27 01:12:48;;;;;;;9.97;8.53;;;;;;;;;;5134464;28;20804;-70
2022/06/27 01:15:15;;;;;;;9.57;8.67;;;;;;;;;;5134385;28;20449;-70
2022/06/27 01:17:42;;;;;;;9.13;8.20;;;;;;;;;;5134107;28;20661;-70
2022/06/27 01:20:11;;;;;;;9.50;8.60;;;;;;;;;;5134919;28;20435;-71
2022/06/27 01:22:40;;;;;;;9.23;8.43;;;;;;;;;;5134385;28;20434;-71
2022/06/27 01:25:08;;;;;;;10.93;9.87;;;;;;;;;;5134513;28;20532;-71
2022/06/27 01:27:36;;;;;;;10.83;9.80;;;;;;;;;;5136515;27;20472;-70
2022/06/27 01:30:03;;;;;;;11.70;9.93;;;;;;;;;;5138487;27;20447;-70
2022/06/27 01:32:30;;;;;;;12.17;9.80;;;;;;;;;;5138504;27;20469;-70
2022/06/27 01:34:58;;;;;;;10.30;9.30;;;;;;;;;;5138087;27;21002;-70
2022/06/27 01:37:25;;;;;;;10.80;9.80;;;;;;;;;;5138220;27;20537;-71
2022/06/27 01:39:54;;;;;;;11.00;9.83;;;;;;;;;;5138360;27;20897;-70
2022/06/27 01:42:22;;;;;;;10.43;9.20;;;;;;;;;;5138205;27;20440;-70
2022/06/27 01:44:49;;;;;;;10.80;9.70;;;;;;;;;;5138228;27;20792;-71
2022/06/27 01:47:16;;;;;;;12.03;9.50;;;;;;;;;;5137898;27;20481;-71
2022/06/27 01:49:44;;;;;;;9.57;8.63;;;;;;;;;;5137910;27;20805;-71
2022/06/27 01:52:14;;;;;;;12.07;10.70;;;;;;;;;;5138485;27;20431;-70
2022/06/27 01:54:42;;;;;;;11.53;9.60;;;;;;;;;;5138534;27;20430;-71
2022/06/27 01:57:10;;;;;;;12.10;9.07;;;;;;;;;;5138050;27;20430;-70
2022/06/27 01:59:37;;;;;;;14.83;9.83;;;;;;;;;;5138322;27;20858;-71
2022/06/27 02:02:06;;;;;;;11.10;10.10;;;;;;;;;;5137501;27;20434;-71
2022/06/27 02:04:33;;;;;;;10.07;9.07;;;;;;;;;;5137859;27;20443;-71
2022/06/27 02:07:01;;;;;;;12.17;9.87;;;;;;;;;;5137668;27;20478;-70
2022/06/27 02:09:28;;;;;;;16.93;10.60;;;;;;;;;;5137747;27;20521;-70
2022/06/27 02:11:56;;;;;;;10.93;10.03;;;;;;;;;;5137289;27;20953;-70
2022/06/27 02:14:25;;;;;;;11.90;10.80;;;;;;;;;;5137658;27;20985;-70
2022/06/27 02:16:52;;;;;;;11.23;9.80;;;;;;;;;;5137721;27;20787;-71
2022/06/27 02:19:21;;;;;;;11.37;10.37;;;;;;;;;;5137257;27;20520;-71
2022/06/27 02:21:49;;;;;;;14.10;11.70;;;;;;;;;;5137426;27;20439;-70
2022/06/27 02:24:16;;;;;;;14.70;11.00;;;;;;;;;;5137129;27;20987;-71
2022/06/27 02:26:44;;;;;;;11.97;10.80;;;;;;;;;;5137638;27;20476;-70
2022/06/27 02:29:11;;;;;;;16.60;11.73;;;;;;;;;;5137460;27;20878;-70
2022/06/27 02:31:46;;;;;;;12.90;11.60;;;;;;;;;;5136970;27;20451;-70
2022/06/27 02:34:14;;;;;;;12.03;10.83;;;;;;;;;;5137724;27;20437;-70
2022/06/27 02:36:42;;;;;;;13.77;12.47;;;;;;;;;;5137182;27;20442;-70
2022/06/27 02:39:12;;;;;;;15.87;12.73;;;;;;;;;;5135897;27;20442;-70
2022/06/27 02:41:41;;;;;;;15.30;12.80;;;;;;;;;;5136867;27;20959;-70
2022/06/27 02:44:09;;;;;;;14.33;12.90;;;;;;;;;;5137030;27;20536;-71
2022/06/27 02:46:37;;;;;;;14.53;13.03;;;;;;;;;;5136917;27;20488;-70
2022/06/27 02:49:05;;;;;;;14.57;13.17;;;;;;;;;;5136827;27;20444;-71
2022/06/27 02:51:37;;;;;;;15.57;14.00;;;;;;;;;;5138144;27;21052;-71
2022/06/27 02:54:08;;;;;;;19.67;14.53;;;;;;;;;;5136883;27;20445;-70
2022/06/27 02:56:37;;;;;;;16.10;14.40;;;;;;;;;;5136921;27;20485;-70
2022/06/27 02:59:05;;;;;;;20.70;15.90;;;;;;;;;;5136653;27;20530;-70
2022/06/27 03:01:33;;;;;;;16.03;14.40;;;;;;;;;;5136473;27;20520;-70
2022/06/27 03:04:00;;;;;;;16.20;14.50;;;;;;;;;;5137012;27;20434;-70
2022/06/27 03:06:30;;;;;;;17.27;15.50;;;;;;;;;;5136299;27;20944;-70
2022/06/27 03:08:58;;;;;;;21.03;15.13;;;;;;;;;;5136804;27;20470;-70
2022/06/27 03:11:26;;;;;;;17.30;14.70;;;;;;;;;;5136524;27;20475;-70
2022/06/27 03:13:54;;;;;;;17.37;15.67;;;;;;;;;;5136102;27;20450;-70
2022/06/27 03:16:21;;;;;;;16.43;14.93;;;;;;;;;;5136068;27;21006;-70
2022/06/27 03:18:49;;;;;;;17.70;15.90;;;;;;;;;;5136354;27;20441;-70
2022/06/27 03:21:17;;;;;;;19.23;17.33;;;;;;;;;;5136413;27;20519;-70
2022/06/27 03:23:47;;;;;;;21.23;16.37;;;;;;;;;;5136163;27;20440;-69
2022/06/27 03:26:14;;;;;;;18.03;16.13;;;;;;;;;;5136452;27;20441;-70
2022/06/27 03:28:42;;;;;;;17.07;15.37;;;;;;;;;;5136175;27;20479;-70
2022/06/27 03:31:10;;;;;;;20.70;16.53;;;;;;;;;;5136355;27;20532;-70
2022/06/27 03:33:37;;;;;;;18.70;16.83;;;;;;;;;;5136024;27;20529;-70
2022/06/27 03:36:05;;;;;;;21.07;18.20;;;;;;;;;;5135773;27;20442;-70
2022/06/27 03:38:32;;;;;;;18.90;17.00;;;;;;;;;;5135967;27;20525;-70
2022/06/27 03:41:01;;;;;;;21.40;17.40;;;;;;;;;;5135687;27;20448;-70
2022/06/27 03:43:29;;;;;;;20.53;18.47;;;;;;;;;;5136018;27;20521;-70
2022/06/27 03:45:56;;;;;;;21.43;19.23;;;;;;;;;;5135870;27;20590;-74
2022/06/27 03:51:06;;;;;;;25.70;20.30;;;;;;;;;;5101145;27;20846;-70
2022/06/27 03:53:33;;;;;;;22.40;20.27;;;;;;;;;;5135339;27;20434;-70
2022/06/27 03:56:02;;;;;;;25.83;20.87;;;;;;;;;;5135693;27;20472;-70
2022/06/27 03:58:29;;;;;;;23.53;19.73;;;;;;;;;;5135641;27;20487;-70
2022/06/27 04:00:56;;;;;;;24.07;20.47;;;;;;;;;;5133401;27;20475;-70
2022/06/27 04:03:24;;;;;;;25.47;21.10;;;;;;;;;;5134622;27;20918;-70
2022/06/27 04:05:51;;;;;;;24.63;22.03;;;;;;;;;;5134519;27;20956;-70
2022/06/27 04:08:18;;;;;;;24.80;22.17;;;;;;;;;;5134869;27;20561;-70
2022/06/27 04:10:45;;;;;;;23.63;21.13;;;;;;;;;;5135472;27;20529;-70
2022/06/27 04:13:14;;;;;;;24.53;22.00;;;;;;;;;;5134700;27;20522;-70
2022/06/27 04:15:41;;;;;;;32.23;21.13;;;;;;;;;;5134962;27;20439;-70
2022/06/27 04:18:08;;;;;;;30.37;21.90;;;;;;;;;;5135472;27;20546;-70
2022/06/27 04:20:36;;;;;;;24.13;21.10;;;;;;;;;;5135186;27;20432;-70
2022/06/27 04:23:03;;;;;;;27.23;20.30;;;;;;;;;;5134932;27;20446;-70
2022/06/27 04:25:30;;;;;;;22.27;20.00;;;;;;;;;;5134799;27;20998;-71
2022/06/27 04:27:58;;;;;;;21.30;19.10;;;;;;;;;;5134783;27;21084;-70
2022/06/27 04:30:27;;;;;;;21.70;19.40;;;;;;;;;;5134787;27;20474;-70
2022/06/27 04:32:57;;;;;;;19.70;17.70;;;;;;;;;;5134326;27;20531;-70
2022/06/27 04:35:25;;;;;;;19.30;17.07;;;;;;;;;;5134824;27;20502;-71
2022/06/27 04:37:53;;;;;;;24.27;19.07;;;;;;;;;;5134647;27;20442;-70
2022/06/27 04:40:20;;;;;;;21.67;18.93;;;;;;;;;;5134826;27;20525;-71
2022/06/27 04:42:49;;;;;;;23.03;19.43;;;;;;;;;;5134794;27;20477;-70
2022/06/27 04:45:16;;;;;;;23.73;20.13;;;;;;;;;;5134396;27;20995;-70
2022/06/27 04:47:45;;;;;;;24.30;21.73;;;;;;;;;;5134127;27;20576;-70
2022/06/27 04:50:13;;;;;;;28.47;23.60;;;;;;;;;;5134394;27;20478;-71
2022/06/27 04:52:41;;;;;;;34.33;23.03;;;;;;;;;;5134276;27;20438;-70
2022/06/27 04:55:09;;;;;;;25.93;23.30;;;;;;;;;;5134752;27;20434;-70
2022/06/27 04:57:37;;;;;;;26.97;23.80;;;;;;;;;;5134820;27;20526;-70
2022/06/27 05:00:05;;;;;;;29.67;24.27;;;;;;;;;;5133987;27;21040;-71
2022/06/27 05:02:32;;;;;;;27.30;24.53;;;;;;;;;;5134142;27;20522;-71
2022/06/27 05:05:01;;;;;;;28.43;24.23;;;;;;;;;;5134543;27;20491;-73
2022/06/27 05:07:28;;;;;;;25.07;22.60;;;;;;;;;;5134475;28;20471;-72
2022/06/27 05:09:56;;;;;;;27.30;24.30;;;;;;;;;;5134535;28;20522;-71
2022/06/27 05:12:24;;;;;;;25.50;22.90;;;;;;;;;;5132738;28;20471;-68
2022/06/27 05:14:52;;;;;;;25.63;23.03;;;;;;;;;;5132694;28;20442;-70
2022/06/27 05:17:19;;;;;;;30.07;23.20;;;;;;;;;;5133221;28;20537;-71
2022/06/27 05:19:46;;;;;;;28.70;23.73;;;;;;;;;;5133798;28;20449;-68
2022/06/27 05:22:15;;;;;;;26.90;24.20;;;;;;;;;;5134019;28;20482;-68
2022/06/27 05:24:42;;;;;;;28.30;23.40;;;;;;;;;;5134291;28;20523;-68
2022/06/27 05:27:10;;;;;;;27.20;24.03;;;;;;;;;;5134304;28;20434;-66
2022/06/27 05:29:37;;;;;;;27.57;24.53;;;;;;;;;;5133945;28;20532;-65
2022/06/27 05:32:05;;;;;;;30.47;24.40;;;;;;;;;;5134328;28;20470;-65
2022/06/27 05:34:32;;;;;;;26.43;23.53;;;;;;;;;;5133947;28;20525;-65
2022/06/27 05:36:59;;;;;;;27.83;24.63;;;;;;;;;;5133961;28;20542;-65
2022/06/27 05:39:28;;;;;;;27.03;23.77;;;;;;;;;;5134172;28;20526;-65
2022/06/27 05:41:55;;;;;;;27.03;23.07;;;;;;;;;;5134236;28;20806;-65
2022/06/27 05:44:24;;;;;;;27.60;23.40;;;;;;;;;;5134285;28;20467;-67
2022/06/27 05:46:52;;;;;;;30.70;22.50;;;;;;;;;;5134197;28;20440;-68
2022/06/27 05:49:19;;;;;;;26.33;21.93;;;;;;;;;;5133633;28;20476;-67
2022/06/27 05:51:47;;;;;;;22.63;20.43;;;;;;;;;;5134111;28;20454;-67
2022/06/27 05:54:14;;;;;;;31.80;23.10;;;;;;;;;;5133790;28;20478;-67
2022/06/27 05:56:42;;;;;;;25.43;22.93;;;;;;;;;;5133989;28;20521;-67
2022/06/27 05:59:10;;;;;;;25.27;22.63;;;;;;;;;;5133732;28;20528;-67
2022/06/27 06:01:39;;;;;;;24.03;21.57;;;;;;;;;;5133681;28;20545;-67
2022/06/27 06:04:06;;;;;;;24.33;21.90;;;;;;;;;;5134701;28;20441;-68
2022/06/27 06:06:34;;;;;;;24.03;21.60;;;;;;;;;;5133598;28;20452;-66
2022/06/27 06:09:01;;;;;;;25.60;22.00;;;;;;;;;;5133634;28;20578;-67
2022/06/27 06:11:28;;;;;;;25.43;22.73;;;;;;;;;;5134336;28;20438;-68
2022/06/27 06:13:57;;;;;;;26.83;20.30;;;;;;;;;;5135596;27;20488;-68
2022/06/27 06:16:25;;;;;;;24.47;21.87;;;;;;;;;;5137522;27;20467;-67
2022/06/27 06:18:54;;;;;;;23.67;20.47;;;;;;;;;;5137365;27;20983;-67
2022/06/27 06:21:22;;;;;;;26.00;23.30;;;;;;;;;;5137367;27;20939;-67
2022/06/27 06:23:51;;;;;;;27.60;22.60;;;;;;;;;;5137299;27;20452;-67
2022/06/27 06:26:19;;;;;;;25.63;22.87;;;;;;;;;;5137366;27;20839;-67
2022/06/27 06:28:48;;;;;;;25.77;23.17;;;;;;;;;;5137026;27;20478;-67
2022/06/27 06:31:21;;;;;;;26.77;24.03;;;;;;;;;;5137272;27;20538;-67
2022/06/27 06:33:50;;;;;;;26.83;24.03;;;;;;;;;;5137744;27;20430;-67
2022/06/27 06:36:18;;;;;;;27.97;25.27;;;;;;;;;;5136853;27;20449;-67
2022/06/27 06:38:47;;;;;;;30.47;25.90;;;;;;;;;;5137225;27;20560;-67
2022/06/27 06:41:14;;;;;;;30.00;23.20;;;;;;;;;;5136762;27;20479;-67
2022/06/27 06:43:41;;;;;;;26.10;23.57;;;;;;;;;;5136873;27;20945;-67
2022/06/27 06:46:10;;;;;;;25.03;22.63;;;;;;;;;;5136940;27;20515;-67
2022/06/27 06:48:40;;;;;;;26.70;23.90;;;;;;;;;;5136987;27;20475;-67
2022/06/27 06:51:08;;;;;;;28.30;23.87;;;;;;;;;;5137197;27;20469;-67
2022/06/27 06:53:36;;;;;;;27.20;23.10;;;;;;;;;;5136950;27;20469;-67
2022/06/27 06:56:04;;;;;;;27.93;24.97;;;;;;;;;;5136852;27;20808;-67
2022/06/27 06:58:31;;;;;;;28.40;25.67;;;;;;;;;;5136899;27;20438;-67
2022/06/27 07:00:59;;;;;;;27.03;24.13;;;;;;;;;;5136820;27;20523;-67
2022/06/27 07:03:26;;;;;;;25.87;23.13;;;;;;;;;;5136435;27;20445;-67
2022/06/27 07:05:56;;;;;;;28.63;25.60;;;;;;;;;;5136646;27;20805;-67
2022/06/27 07:08:24;;;;;;;29.17;26.00;;;;;;;;;;5136413;27;21003;-67
2022/06/27 07:10:52;;;;;;;27.13;23.17;;;;;;;;;;5136430;27;20446;-68
2022/06/27 07:13:19;;;;;;;25.47;22.77;;;;;;;;;;5136132;27;20492;-67
2022/06/27 07:15:47;;;;;;;28.10;23.33;;;;;;;;;;5135999;27;20449;-67
2022/06/27 07:18:15;;;;;;;27.87;24.97;;;;;;;;;;5136115;27;20453;-67
2022/06/27 07:20:43;;;;;;;24.53;22.20;;;;;;;;;;5135524;27;20435;-68
2022/06/27 07:23:12;;;;;;;26.17;23.57;;;;;;;;;;5136483;27;20437;-68
2022/06/27 07:25:40;;;;;;;25.27;22.77;;;;;;;;;;5135850;27;20439;-67
2022/06/27 07:28:08;;;;;;;24.20;21.90;;;;;;;;;;5135771;27;20483;-67
2022/06/27 07:30:36;;;;;;;24.50;21.97;;;;;;;;;;5135919;27;20439;-67
2022/06/27 07:33:03;;;;;;;25.70;23.10;;;;;;;;;;5136349;27;20440;-67
2022/06/27 07:35:31;;;;;;;29.00;24.23;;;;;;;;;;5136173;27;20443;-67
2022/06/27 07:37:58;;;;;;;29.27;24.90;;;;;;;;;;5135995;27;20495;-67
2022/06/27 07:40:27;;;;;;;29.70;23.90;;;;;;;;;;5135683;27;20478;-68
2022/06/27 07:42:55;;;;;;;25.13;22.50;;;;;;;;;;5135931;27;20441;-68
2022/06/27 07:45:24;;;;;;;28.90;24.57;;;;;;;;;;5135832;27;20443;-68
2022/06/27 07:47:51;;;;;;;27.13;24.17;;;;;;;;;;5135887;27;20967;-67
2022/06/27 07:53:15;;;;;;;25.30;22.77;;;;;;;;;;5134711;27;20519;-68
2022/06/27 07:55:46;;;;;;;27.33;22.50;;;;;;;;;;5135884;27;20443;-68
2022/06/27 07:58:16;;;;;;;25.97;22.20;;;;;;;;;;5135737;27;20435;-68
2022/06/27 08:00:44;;;;;;;24.23;21.93;;;;;;;;;;5135892;27;20508;-68
2022/06/27 08:05:57;;;;;;;23.13;20.07;;;;;;;;;;5135311;27;20452;-68
2022/06/27 08:08:24;;;;;;;23.57;21.10;;;;;;;;;;5135298;27;20509;-68
2022/06/27 08:10:53;;;;;;;24.67;22.20;;;;;;;;;;5135141;27;20529;-67
2022/06/27 08:13:20;;;;;;;27.17;24.30;;;;;;;;;;5135269;27;20442;-68
2022/06/27 08:15:48;;;;;;;25.37;22.77;;;;;;;;;;5135271;27;20460;-68
2022/06/27 08:18:15;;;;;;;23.90;21.50;;;;;;;;;;5135327;27;20447;-68
2022/06/27 08:20:45;;;;;;;27.93;21.40;;;;;;;;;;5135163;27;20446;-68
2022/06/27 08:23:13;;;;;;;28.40;22.10;;;;;;;;;;5135284;27;20492;-68
2022/06/27 08:25:41;;;;;;;25.27;22.87;;;;;;;;;;5135113;27;20441;-69
2022/06/27 08:28:10;;;;;;;26.03;22.40;;;;;;;;;;5134904;27;20479;-68
2022/06/27 08:30:38;;;;;;;24.90;22.30;;;;;;;;;;5135092;27;20442;-68
2022/06/27 08:33:05;;;;;;;25.80;23.30;;;;;;;;;;5134660;27;20550;-68
2022/06/27 08:35:33;;;;;;;26.20;23.50;;;;;;;;;;5134930;27;20527;-68
2022/06/27 08:38:01;;;;;;;25.57;22.80;;;;;;;;;;5134093;27;20822;-68
2022/06/27 08:40:29;;;;;;;26.77;23.83;;;;;;;;;;5135349;27;20442;-68
2022/06/27 08:42:56;;;;;;;25.77;23.30;;;;;;;;;;5135210;27;20848;-67
2022/06/27 08:45:25;;;;;;;26.07;23.37;;;;;;;;;;5134854;27;20486;-67
2022/06/27 08:47:56;;;;;;;27.13;24.33;;;;;;;;;;5134553;27;20809;-67
2022/06/27 08:50:23;;;;;;;26.27;23.40;;;;;;;;;;5134631;27;20903;-67
2022/06/27 08:52:51;;;;;;;32.43;25.27;;;;;;;;;;5134327;27;20442;-68
2022/06/27 08:55:19;;;;;;;24.63;22.13;;;;;;;;;;5134306;27;20991;-66
2022/06/27 08:57:46;;;;;;;23.90;21.50;;;;;;;;;;5134253;27;20442;-66
2022/06/27 09:00:15;;;;;;;27.57;24.67;;;;;;;;;;5134306;27;20938;-66
2022/06/27 09:02:43;;;;;;;26.03;23.40;;;;;;;;;;5134478;27;20533;-66
2022/06/27 09:05:17;;;;;;;25.93;23.33;;;;;;;;;;5134923;27;20487;-66
2022/06/27 09:07:48;;;;;;;25.23;22.70;;;;;;;;;;5134214;27;20422;-66
2022/06/27 09:10:30;;;;;;;25.43;22.80;;;;;;;;;;5134157;28;21002;-66
2022/06/27 09:12:59;;;;;;;26.60;22.40;;;;;;;;;;5131546;28;20484;-66
2022/06/27 09:15:28;;;;;;;25.37;23.07;;;;;;;;;;5134475;28;20779;-67
2022/06/27 09:18:06;;;;;;;29.27;23.87;;;;;;;;;;5135074;28;20912;-66
2022/06/27 09:20:45;;;;;;;32.97;25.90;;;;;;;;;;5134925;28;20913;-67
2022/06/27 09:23:27;;;;;;;27.77;25.00;;;;;;;;;;5134327;28;20436;-66
2022/06/27 09:25:59;;;;;;;25.30;22.30;;;;;;;;;;5134575;28;20463;-66
2022/06/27 09:28:37;;;;;;;27.57;24.43;;;;;;;;;;5134698;28;20797;-66
2022/06/27 09:31:04;;;;;;;31.90;22.93;;;;;;;;;;5134443;28;20775;-66
2022/06/27 09:33:33;;;;;;;26.63;23.83;;;;;;;;;;5133984;28;20440;-67
2022/06/27 09:36:09;;;;;;;25.63;22.90;;;;;;;;;;5133992;28;20523;-67
2022/06/27 09:38:40;;;;;;;27.63;23.87;;;;;;;;;;5133897;28;20413;-67
2022/06/27 09:41:10;;;;;;;24.83;22.20;;;;;;;;;;5134446;28;20446;-66
2022/06/27 09:43:39;;;;;;;25.17;21.87;;;;;;;;;;5134439;28;20444;-66
2022/06/27 09:46:07;;;;;;;26.63;23.57;;;;;;;;;;5133770;28;20533;-67
2022/06/27 09:48:37;;;;;;;30.53;23.77;;;;;;;;;;5136478;27;20535;-67
2022/06/27 09:51:04;;;;;;;28.13;22.97;;;;;;;;;;5138067;27;20558;-67
2022/06/27 09:53:32;;;;;;;24.83;21.43;;;;;;;;;;5138238;27;20470;-67
2022/06/27 09:56:01;;;;;;;28.23;21.80;;;;;;;;;;5137979;27;20447;-66
2022/06/27 09:58:30;;;;;;;27.10;22.33;;;;;;;;;;5137896;27;20447;-66
2022/06/27 10:00:58;;;;;;;22.80;18.70;;;;;;;;;;5137962;27;20553;-66
2022/06/27 10:03:26;;;;;;;22.70;20.07;;;;;;;;;;5137876;27;20439;-67
2022/06/27 10:05:55;;;;;;;23.37;18.40;;;;;;;;;;5137564;27;20473;-67
2022/06/27 10:08:23;;;;;;;21.03;18.60;;;;;;;;;;5137739;27;20466;-67
2022/06/27 10:11:11;;;;;;;22.80;18.80;;;;;;;;;;5137339;27;20480;-66
2022/06/27 10:13:39;;;;;;;22.00;17.97;;;;;;;;;;5137864;27;20776;-67
2022/06/27 10:16:08;;;;;;;19.67;17.57;;;;;;;;;;5137559;27;20863;-66
2022/06/27 10:18:54;;;;;;;21.40;17.83;;;;;;;;;;5137478;27;20439;-66
2022/06/27 10:21:29;;;;;;;19.20;16.53;;;;;;;;;;5137218;27;20468;-66
2022/06/27 10:24:15;;;;;;;19.47;17.47;;;;;;;;;;5137141;27;20431;-66
2022/06/27 10:26:43;;;;;;;21.20;16.50;;;;;;;;;;5137592;27;20467;-66
2022/06/27 10:29:28;;;;;;;19.67;17.60;;;;;;;;;;5137474;27;20471;-67
2022/06/27 10:31:56;;;;;;;19.80;17.13;;;;;;;;;;5137200;27;20940;-67
2022/06/27 10:34:46;;;;;;;21.80;18.50;;;;;;;;;;5136753;27;20483;-66
2022/06/27 10:37:32;;;;;;;17.07;14.83;;;;;;;;;;5137228;27;20443;-66
2022/06/27 10:40:15;;;;;;;19.33;16.37;;;;;;;;;;5136687;27;20474;-67
2022/06/27 10:42:49;;;;;;;17.80;16.00;;;;;;;;;;5137135;27;20521;-66
2022/06/27 10:45:27;;;;;;;19.23;17.23;;;;;;;;;;5137138;27;20518;-66
2022/06/27 10:47:55;;;;;;;23.40;16.57;;;;;;;;;;5136978;27;20452;-66
2022/06/27 10:50:23;;;;;;;20.67;15.00;;;;;;;;;;5136867;27;20525;-67
2022/06/27 10:52:51;;;;;;;22.10;15.90;;;;;;;;;;5137032;27;20529;-67
2022/06/27 10:55:23;;;;;;;22.00;17.40;;;;;;;;;;5137002;27;20479;-67
2022/06/27 10:57:52;;;;;;;20.13;16.07;;;;;;;;;;5136884;27;20434;-67
2022/06/27 11:00:36;;;;;;;18.77;15.27;;;;;;;;;;5135926;27;20483;-67
2022/06/27 11:03:04;;;;;;;19.33;16.90;;;;;;;;;;5136742;27;20542;-67
2022/06/27 11:05:32;;;;;;;19.60;17.10;;;;;;;;;;5136653;27;20472;-67
2022/06/27 11:07:59;;;;;;;19.60;17.60;;;;;;;;;;5136363;27;20444;-67
2022/06/27 11:10:27;;;;;;;19.33;16.70;;;;;;;;;;5136526;27;20551;-67
2022/06/27 11:12:55;;;;;;;20.40;16.90;;;;;;;;;;5136319;27;20918;-67
2022/06/27 11:15:23;;;;;;;21.40;16.20;;;;;;;;;;5136103;27;20521;-66
2022/06/27 11:17:50;;;;;;;17.50;15.07;;;;;;;;;;5136666;27;20451;-66
2022/06/27 11:20:21;;;;;;;16.87;14.23;;;;;;;;;;5136458;27;20524;-66
2022/06/27 11:22:51;;;;;;;18.87;14.70;;;;;;;;;;5136840;27;20427;-66
2022/06/27 11:25:20;;;;;;;17.30;14.90;;;;;;;;;;5136441;27;20491;-66
2022/06/27 11:27:48;;;;;;;16.00;13.50;;;;;;;;;;5136343;27;20436;-66
2022/06/27 11:33:23;;;;;;;17.60;13.27;;;;;;;;;;5136201;27;20439;-66
2022/06/27 11:35:51;;;;;;;18.63;12.90;;;;;;;;;;5136255;27;20463;-66
2022/06/27 11:38:24;;;;;;;13.07;11.83;;;;;;;;;;5136072;27;20459;-66
2022/06/27 11:41:01;;;;;;;15.13;12.77;;;;;;;;;;5135578;27;20447;-67
2022/06/27 11:43:43;;;;;;;12.60;11.40;;;;;;;;;;5135833;27;20899;-66
2022/06/27 11:46:21;;;;;;;15.47;12.10;;;;;;;;;;5135336;27;20527;-66
2022/06/27 11:48:52;;;;;;;15.07;12.57;;;;;;;;;;5135591;27;20428;-66
2022/06/27 11:51:25;;;;;;;13.53;12.23;;;;;;;;;;5135184;27;20573;-66
2022/06/27 11:53:53;;;;;;;13.27;11.97;;;;;;;;;;5135220;27;20482;-66
2022/06/27 11:56:25;;;;;;;14.10;12.77;;;;;;;;;;5135366;27;20795;-66
2022/06/27 11:58:52;;;;;;;14.77;13.30;;;;;;;;;;5135620;27;20440;-67
2022/06/27 12:01:20;;;;;;;15.43;12.93;;;;;;;;;;5135366;27;20492;-66
2022/06/27 12:04:05;;;;;;;16.20;13.87;;;;;;;;;;5135427;27;20485;-66
2022/06/27 12:06:41;;;;;;;14.20;12.20;;;;;;;;;;5135461;27;20436;-67
2022/06/27 12:09:08;;;;;;;14.73;13.20;;;;;;;;;;5135757;27;20442;-66
2022/06/27 12:11:35;;;;;;;17.67;12.93;;;;;;;;;;5135024;27;20449;-66
2022/06/27 12:14:03;;;;;;;17.20;11.90;;;;;;;;;;5134344;27;20531;-66
2022/06/27 12:16:44;;;;;;;17.07;13.03;;;;;;;;;;5134667;27;20539;-66
2022/06/27 12:19:11;;;;;;;19.67;13.27;;;;;;;;;;5135368;27;20433;-67
2022/06/27 12:21:40;;;;;;;14.53;11.83;;;;;;;;;;5135246;27;20519;-67
2022/06/27 12:24:08;;;;;;;18.93;13.30;;;;;;;;;;5135240;27;20441;-67
2022/06/27 12:26:35;;;;;;;16.13;13.33;;;;;;;;;;5134736;27;20441;-66
2022/06/27 12:29:02;;;;;;;15.53;13.30;;;;;;;;;;5134781;27;20504;-66
2022/06/27 12:31:30;;;;;;;15.30;13.50;;;;;;;;;;5134666;27;21062;-66
2022/06/27 12:33:57;;;;;;;14.03;11.93;;;;;;;;;;5134824;27;20482;-66
2022/06/27 12:36:24;;;;;;;14.00;11.60;;;;;;;;;;5134637;27;20959;-67
2022/06/27 12:38:53;;;;;;;13.40;11.20;;;;;;;;;;5134975;27;20537;-66
2022/06/27 12:41:20;;;;;;;11.20;10.10;;;;;;;;;;5134988;27;20526;-66
2022/06/27 12:43:48;;;;;;;11.97;10.13;;;;;;;;;;5135428;27;20444;-66
2022/06/27 12:46:17;;;;;;;10.90;9.90;;;;;;;;;;5134832;27;20431;-67
2022/06/27 12:48:44;;;;;;;12.23;9.13;;;;;;;;;;5134533;27;20488;-66
2022/06/27 12:51:11;;;;;;;13.50;9.67;;;;;;;;;;5134588;27;20575;-68
2022/06/27 12:53:39;;;;;;;11.60;9.67;;;;;;;;;;5134409;27;20536;-68
2022/06/27 12:56:09;;;;;;;13.67;9.53;;;;;;;;;;5134647;27;20840;-70
2022/06/27 12:58:36;;;;;;;9.20;8.40;;;;;;;;;;5135184;27;20476;-69
2022/06/27 13:01:03;;;;;;;9.20;8.30;;;;;;;;;;5134253;27;20510;-69
2022/06/27 13:03:31;;;;;;;10.80;8.03;;;;;;;;;;5134725;27;20487;-69
2022/06/27 13:05:58;;;;;;;9.43;6.97;;;;;;;;;;5134156;27;20436;-69
2022/06/27 13:08:25;;;;;;;7.60;6.70;;;;;;;;;;5134558;27;20442;-69
2022/06/27 13:10:52;;;;;;;8.97;7.40;;;;;;;;;;5134383;28;20978;-69
2022/06/27 13:13:21;;;;;;;7.83;7.07;;;;;;;;;;5132834;28;20459;-68
2022/06/27 13:15:48;;;;;;;8.93;7.83;;;;;;;;;;5132833;28;20441;-69
2022/06/27 13:18:16;;;;;;;8.83;7.43;;;;;;;;;;5133599;28;20446;-69
2022/06/27 13:20:43;;;;;;;6.23;5.60;;;;;;;;;;5133439;28;21002;-70
2022/06/27 13:23:12;;;;;;;5.70;5.23;;;;;;;;;;5136005;27;20510;-69
2022/06/27 13:25:39;;;;;;;6.33;4.70;;;;;;;;;;5137669;27;20468;-69
2022/06/27 13:28:06;;;;;;;5.20;4.80;;;;;;;;;;5137974;27;20485;-69
2022/06/27 13:30:35;;;;;;;5.20;4.77;;;;;;;;;;5138149;27;20472;-69
2022/06/27 13:33:02;;;;;;;5.43;4.60;;;;;;;;;;5138342;27;20450;-69
2022/06/27 13:35:30;;;;;;;5.63;3.87;;;;;;;;;;5138221;27;20444;-69
2022/06/27 13:38:00;;;;;;;4.63;4.20;;;;;;;;;;5137714;27;20437;-69
2022/06/27 13:40:27;;;;;;;4.70;4.30;;;;;;;;;;5138006;27;20459;-70
2022/06/27 13:42:54;;;;;;;4.90;4.03;;;;;;;;;;5138034;27;20520;-69
2022/06/27 13:45:22;;;;;;;4.73;4.10;;;;;;;;;;5137701;27;20526;-70
2022/06/27 13:47:50;;;;;;;4.60;4.20;;;;;;;;;;5138490;27;20986;-70
2022/06/27 13:50:17;;;;;;;5.07;4.67;;;;;;;;;;5138278;27;20492;-69
2022/06/27 13:52:45;;;;;;;5.37;4.70;;;;;;;;;;5137671;27;20869;-69
2022/06/27 13:55:12;;;;;;;5.70;5.30;;;;;;;;;;5137461;27;20527;-69
2022/06/27 13:57:39;;;;;;;6.00;5.50;;;;;;;;;;5137092;27;20933;-69
2022/06/27 14:00:08;;;;;;;6.50;5.90;;;;;;;;;;5137465;27;20508;-69
2022/06/27 14:02:36;;;;;;;6.80;5.60;;;;;;;;;;5137257;27;20440;-69
2022/06/27 14:05:05;;;;;;;6.80;6.10;;;;;;;;;;5137743;27;20511;-69
2022/06/27 14:07:43;;;;;;;6.23;5.70;;;;;;;;;;5137130;27;20447;-69
2022/06/27 14:10:11;;;;;;;7.80;7.00;;;;;;;;;;5137488;27;20464;-69
2022/06/27 14:12:39;;;;;;;7.03;6.40;;;;;;;;;;5137330;27;20528;-69
2022/06/27 14:15:07;;;;;;;6.33;5.73;;;;;;;;;;5137382;27;20536;-69
2022/06/27 14:17:34;;;;;;;9.20;6.60;;;;;;;;;;5137396;27;20484;-69
2022/06/27 14:20:02;;;;;;;7.13;6.00;;;;;;;;;;5137241;27;20475;-69
2022/06/27 14:22:30;;;;;;;6.90;5.27;;;;;;;;;;5137187;27;20462;-69
2022/06/27 14:24:58;;;;;;;5.60;5.00;;;;;;;;;;5137326;27;20462;-70
2022/06/27 14:27:25;;;;;;;6.57;5.27;;;;;;;;;;5137025;27;20448;-70
2022/06/27 14:29:52;;;;;;;5.93;5.30;;;;;;;;;;5137634;27;20437;-69
2022/06/27 14:32:20;;;;;;;6.30;5.80;;;;;;;;;;5137435;27;20591;-69
2022/06/27 14:34:47;;;;;;;6.10;5.57;;;;;;;;;;5136209;27;20532;-69
2022/06/27 14:37:14;;;;;;;6.77;6.17;;;;;;;;;;5137215;27;20525;-70
2022/06/27 14:39:43;;;;;;;6.70;4.90;;;;;;;;;;5137247;27;20488;-69
2022/06/27 14:42:10;;;;;;;5.50;5.00;;;;;;;;;;5136364;27;20519;-69
2022/06/27 14:44:38;;;;;;;6.73;4.77;;;;;;;;;;5137306;27;20474;-70